Time;durP1;ratioP1;P1;durP2;ratioP2;P2;SDS_P1;SDS_P2;PMS_P1;PMS_P2;Temp;Humidity;BMP_temperature;BMP_pressure;BME280_temperature;BME280_humidity;BME280_pressure;Samples;Min_cycle;Max_cycle;Signal;HPM_P1;HPM_P2
2022/10/27 00:01:33;;;;;;;;;;;;;;;;;;5131626;27;2117;-52
2022/10/27 00:04:00;;;;;;;;;;;;;;;;;;5131615;27;2019;-40
2022/10/27 00:06:27;;;;;;;;;;;;;;;;;;5132025;28;2019;-42
2022/10/27 00:08:55;;;;;;;;;;;;;;;;;;5131762;28;1483;-50
2022/10/27 00:11:22;;;;;;;;;;;;;;;;;;5131296;27;1996;-47
2022/10/27 00:13:49;;;;;;;;;;;;;;;;;;5131463;27;1620;-48
2022/10/27 00:16:16;;;;;;;;;;;;;;;;;;5131484;27;1782;-47
2022/10/27 00:18:44;;;;;;;;;;;;;;;;;;5131764;27;2066;-42
2022/10/27 00:21:12;;;;;;;;;;;;;;;;;;5133053;27;1988;-47
2022/10/27 00:23:40;;;;;;;;;;;;;;;;;;5135649;27;1922;-50
2022/10/27 00:26:09;;;;;;;;;;;;;;;;;;5135661;27;2268;-50
2022/10/27 00:28:36;;;;;;;;;;;;;;;;;;5135530;27;2047;-48
2022/10/27 00:31:10;;;;;;;;;;;;;;;;;;5135520;27;1513;-48
2022/10/27 00:33:37;;;;;;;;;;;;;;;;;;5135464;27;1819;-46
2022/10/27 00:36:08;;;;;;;;;;;;;;;;;;5135575;27;1835;-49
2022/10/27 00:38:36;;;;;;;;;;;;;;;;;;5135460;27;1553;-47
2022/10/27 00:41:04;;;;;;;;;;;;;;;;;;5135266;27;1922;-44
2022/10/27 00:43:34;;;;;;;;;;;;;;;;;;5135484;27;1908;-51
2022/10/27 00:46:04;;;;;;;;;;;;;;;;;;5135569;27;2377;-48
2022/10/27 00:48:32;;;;;;;;;;;;;;;;;;5135528;27;1792;-48
2022/10/27 00:51:01;;;;;;;;;;;;;;;;;;5135546;27;1649;-49
2022/10/27 00:53:28;;;;;;;;;;;;;;;;;;5135087;27;1966;-44
2022/10/27 00:55:55;;;;;;;;;;;;;;;;;;5135028;27;1584;-46
2022/10/27 00:58:22;;;;;;;;;;;;;;;;;;5135245;27;1860;-52
2022/10/27 01:00:50;;;;;;;;;;;;;;;;;;5134890;27;1961;-44
2022/10/27 01:03:19;;;;;;;;;;;;;;;;;;5134845;27;2004;-50
2022/10/27 01:05:46;;;;;;;;;;;;;;;;;;5134705;27;1718;-52
2022/10/27 01:08:14;;;;;;;;;;;;;;;;;;5134796;27;2077;-47
2022/10/27 01:10:41;;;;;;;;;;;;;;;;;;5134859;27;2185;-50
2022/10/27 01:13:08;;;;;;;;;;;;;;;;;;5134148;27;1982;-49
2022/10/27 01:15:39;;;;;;;;;;;;;;;;;;5134827;27;1658;-40
2022/10/27 01:18:38;;;;;;;;;;;;;;;;;;5134456;27;2035;-45
2022/10/27 01:21:24;;;;;;;;;;;;;;;;;;5100033;27;2322;-40
2022/10/27 01:24:10;;;;;;;;;;;;;;;;;;5134363;27;1926;-46
2022/10/27 01:26:49;;;;;;;;;;;;;;;;;;5134326;27;1962;-46
2022/10/27 01:29:18;;;;;;;;;;;;;;;;;;5134312;27;2089;-48
2022/10/27 01:32:09;;;;;;;;;;;;;;;;;;5133864;27;1814;-50
2022/10/27 01:34:38;;;;;;;;;;;;;;;;;;5105541;27;1791;-41
2022/10/27 01:37:12;;;;;;;;;;;;;;;;;;5134354;27;2117;-48
2022/10/27 01:39:47;;;;;;;;;;;;;;;;;;5134226;27;1668;-45
2022/10/27 01:42:16;;;;;;;;;;;;;;;;;;5134181;27;1784;-50
2022/10/27 01:44:45;;;;;;;;;;;;;;;;;;5134144;27;2086;-51
2022/10/27 01:47:14;;;;;;;;;;;;;;;;;;5132999;27;2316;-47
2022/10/27 01:49:42;;;;;;;;;;;;;;;;;;5134251;27;1747;-43
2022/10/27 01:52:27;;;;;;;;;;;;;;;;;;5133851;27;1811;-43
2022/10/27 01:54:57;;;;;;;;;;;;;;;;;;5132734;27;1667;-46
2022/10/27 01:57:33;;;;;;;;;;;;;;;;;;5134010;27;2185;-44
2022/10/27 02:00:02;;;;;;;;;;;;;;;;;;5133730;27;2203;-48
2022/10/27 02:02:30;;;;;;;;;;;;;;;;;;5133575;27;1932;-51
2022/10/27 02:05:04;;;;;;;;;;;;;;;;;;5133637;27;1980;-47
2022/10/27 02:07:49;;;;;;;;;;;;;;;;;;5133690;27;1715;-46
2022/10/27 02:10:27;;;;;;;;;;;;;;;;;;5133664;27;1769;-45
2022/10/27 02:12:56;;;;;;;;;;;;;;;;;;5118127;27;2058;-45
2022/10/27 02:15:31;;;;;;;;;;;;;;;;;;5113012;28;1922;-51
2022/10/27 02:18:04;;;;;;;;;;;;;;;;;;5113055;28;2083;-49
2022/10/27 02:20:37;;;;;;;;;;;;;;;;;;5113271;27;1836;-51
2022/10/27 02:23:06;;;;;;;;;;;;;;;;;;5133924;27;2204;-42
2022/10/27 02:25:53;;;;;;;;;;;;;;;;;;5133759;27;2038;-50
2022/10/27 02:28:25;;;;;;;;;;;;;;;;;;5133191;27;1867;-46
2022/10/27 02:30:53;;;;;;;;;;;;;;;;;;5128532;27;1977;-45
2022/10/27 02:33:20;;;;;;;;;;;;;;;;;;5112799;28;1967;-40
2022/10/27 02:35:50;;;;;;;;;;;;;;;;;;5112364;28;2061;-50
2022/10/27 02:38:17;;;;;;;;;;;;;;;;;;5112470;28;1655;-50
2022/10/27 02:40:44;;;;;;;;;;;;;;;;;;5112438;28;1467;-48
2022/10/27 02:43:11;;;;;;;;;;;;;;;;;;5111687;28;2266;-49
2022/10/27 02:45:38;;;;;;;;;;;;;;;;;;5112463;28;1918;-45
2022/10/27 02:48:06;;;;;;;;;;;;;;;;;;5112387;28;1628;-48
2022/10/27 02:50:33;;;;;;;;;;;;;;;;;;5112175;28;1861;-48
2022/10/27 02:53:00;;;;;;;;;;;;;;;;;;5112475;28;2139;-47
2022/10/27 02:55:26;;;;;;;;;;;;;;;;;;5112183;28;1944;-46
2022/10/27 02:57:54;;;;;;;;;;;;;;;;;;5112365;28;1686;-48
2022/10/27 03:00:21;;;;;;;;;;;;;;;;;;5112356;28;1693;-45
2022/10/27 03:02:48;;;;;;;;;;;;;;;;;;5111972;28;1957;-49
2022/10/27 03:05:15;;;;;;;;;;;;;;;;;;5110592;28;2519;-46
2022/10/27 03:07:42;;;;;;;;;;;;;;;;;;5111924;28;1809;-40
2022/10/27 03:10:09;;;;;;;;;;;;;;;;;;5112343;28;1621;-46
2022/10/27 03:12:37;;;;;;;;;;;;;;;;;;5111932;28;1684;-45
2022/10/27 03:15:04;;;;;;;;;;;;;;;;;;5111892;28;1851;-49
2022/10/27 03:17:32;;;;;;;;;;;;;;;;;;5111767;28;1728;-49
2022/10/27 03:19:59;;;;;;;;;;;;;;;;;;5111792;28;1647;-52
2022/10/27 03:22:26;;;;;;;;;;;;;;;;;;5111874;28;2050;-44
2022/10/27 03:24:53;;;;;;;;;;;;;;;;;;5111691;28;1906;-50
2022/10/27 03:27:20;;;;;;;;;;;;;;;;;;5111164;27;2057;-41
2022/10/27 03:29:47;;;;;;;;;;;;;;;;;;5111673;28;2055;-51
2022/10/27 03:32:15;;;;;;;;;;;;;;;;;;5111683;28;2129;-46
2022/10/27 03:34:42;;;;;;;;;;;;;;;;;;5111808;28;2113;-43
2022/10/27 03:37:09;;;;;;;;;;;;;;;;;;5111942;28;2102;-46
2022/10/27 03:39:36;;;;;;;;;;;;;;;;;;5111172;28;1654;-45
2022/10/27 03:42:05;;;;;;;;;;;;;;;;;;5111348;28;1716;-50
2022/10/27 03:44:32;;;;;;;;;;;;;;;;;;5111165;28;1963;-45
2022/10/27 03:46:59;;;;;;;;;;;;;;;;;;5111411;28;2135;-51
2022/10/27 03:49:26;;;;;;;;;;;;;;;;;;5111328;28;1564;-42
2022/10/27 03:51:58;;;;;;;;;;;;;;;;;;5111242;28;1986;-41
2022/10/27 03:54:28;;;;;;;;;;;;;;;;;;5111286;28;1664;-53
2022/10/27 03:56:55;;;;;;;;;;;;;;;;;;5111258;28;1964;-48
2022/10/27 03:59:22;;;;;;;;;;;;;;;;;;5111101;28;2309;-45
2022/10/27 04:01:50;;;;;;;;;;;;;;;;;;5111320;28;2058;-42
2022/10/27 04:04:18;;;;;;;;;;;;;;;;;;5111289;28;2133;-46
2022/10/27 04:06:45;;;;;;;;;;;;;;;;;;5111576;28;2130;-40
2022/10/27 04:09:13;;;;;;;;;;;;;;;;;;5111473;28;2089;-39
2022/10/27 04:11:40;;;;;;;;;;;;;;;;;;5111109;28;1657;-47
2022/10/27 04:14:07;;;;;;;;;;;;;;;;;;5111138;28;1963;-40
2022/10/27 04:16:34;;;;;;;;;;;;;;;;;;5111271;28;2135;-51
2022/10/27 04:19:01;;;;;;;;;;;;;;;;;;5111408;28;1953;-40
2022/10/27 04:21:28;;;;;;;;;;;;;;;;;;5111121;28;1903;-40
2022/10/27 04:23:55;;;;;;;;;;;;;;;;;;5111092;28;2184;-44
2022/10/27 04:26:25;;;;;;;;;;;;;;;;;;5110764;28;1903;-40
2022/10/27 04:28:52;;;;;;;;;;;;;;;;;;5111149;28;1563;-39
2022/10/27 04:31:19;;;;;;;;;;;;;;;;;;5111163;28;1691;-40
2022/10/27 04:33:47;;;;;;;;;;;;;;;;;;5111024;28;1884;-40
2022/10/27 04:36:14;;;;;;;;;;;;;;;;;;5111164;28;2030;-40
2022/10/27 04:38:41;;;;;;;;;;;;;;;;;;5110872;28;1393;-41
2022/10/27 04:41:08;;;;;;;;;;;;;;;;;;5111009;28;2096;-39
2022/10/27 04:43:35;;;;;;;;;;;;;;;;;;5111077;28;1545;-40
2022/10/27 04:46:03;;;;;;;;;;;;;;;;;;5110685;28;1982;-52
2022/10/27 04:48:30;;;;;;;;;;;;;;;;;;5111063;28;1808;-52
2022/10/27 04:50:57;;;;;;;;;;;;;;;;;;5110891;28;1946;-39
2022/10/27 04:53:25;;;;;;;;;;;;;;;;;;5110702;28;1733;-41
2022/10/27 04:55:54;;;;;;;;;;;;;;;;;;5110794;28;1809;-40
2022/10/27 04:58:21;;;;;;;;;;;;;;;;;;5112429;28;2011;-40
2022/10/27 05:00:48;;;;;;;;;;;;;;;;;;5110896;28;1787;-53
2022/10/27 05:03:19;;;;;;;;;;;;;;;;;;5110902;28;1499;-41
2022/10/27 05:05:46;;;;;;;;;;;;;;;;;;5110634;28;1905;-40
2022/10/27 05:08:15;;;;;;;;;;;;;;;;;;5113888;28;1838;-40
2022/10/27 05:10:43;;;;;;;;;;;;;;;;;;5114514;28;1832;-39
2022/10/27 05:13:10;;;;;;;;;;;;;;;;;;5114201;28;2234;-46
2022/10/27 05:15:37;;;;;;;;;;;;;;;;;;5114153;28;1632;-39
2022/10/27 05:18:05;;;;;;;;;;;;;;;;;;5114245;28;2213;-52
2022/10/27 05:20:34;;;;;;;;;;;;;;;;;;5114116;28;1913;-40
2022/10/27 05:23:01;;;;;;;;;;;;;;;;;;5114264;28;2196;-40
2022/10/27 05:25:28;;;;;;;;;;;;;;;;;;5113161;27;2236;-39
2022/10/27 05:28:22;;;;;;;;;;;;;;;;;;5114879;27;1824;-39
2022/10/27 05:30:49;;;;;;;;;;;;;;;;;;5120164;27;1423;-40
2022/10/27 05:33:16;;;;;;;;;;;;;;;;;;5134474;27;1668;-40
2022/10/27 05:35:44;;;;;;;;;;;;;;;;;;5133610;27;1841;-40
2022/10/27 05:38:11;;;;;;;;;;;;;;;;;;5134606;27;1979;-39
2022/10/27 05:40:40;;;;;;;;;;;;;;;;;;5134558;27;2186;-39
2022/10/27 05:43:08;;;;;;;;;;;;;;;;;;5125893;27;1800;-39
2022/10/27 05:45:36;;;;;;;;;;;;;;;;;;5113720;28;1910;-40
2022/10/27 05:48:06;;;;;;;;;;;;;;;;;;5113661;28;1810;-40
2022/10/27 05:50:36;;;;;;;;;;;;;;;;;;5113892;28;1979;-40
2022/10/27 05:53:10;;;;;;;;;;;;;;;;;;5113848;28;2254;-43
2022/10/27 05:55:42;;;;;;;;;;;;;;;;;;5113671;28;1748;-40
2022/10/27 05:58:09;;;;;;;;;;;;;;;;;;5113812;28;1960;-46
2022/10/27 06:00:44;;;;;;;;;;;;;;;;;;5113778;28;1937;-50
2022/10/27 06:03:19;;;;;;;;;;;;;;;;;;5113690;28;1917;-40
2022/10/27 06:05:47;;;;;;;;;;;;;;;;;;5113205;28;1969;-45
2022/10/27 06:08:14;;;;;;;;;;;;;;;;;;5113010;28;1814;-39
2022/10/27 06:10:42;;;;;;;;;;;;;;;;;;5112438;28;1891;-40
2022/10/27 06:13:09;;;;;;;;;;;;;;;;;;5111951;27;1986;-39
2022/10/27 06:15:37;;;;;;;;;;;;;;;;;;5112231;28;1970;-40
2022/10/27 06:18:05;;;;;;;;;;;;;;;;;;5111250;28;1828;-39
2022/10/27 06:20:32;;;;;;;;;;;;;;;;;;5112936;28;2405;-45
2022/10/27 06:23:00;;;;;;;;;;;;;;;;;;5112037;28;2537;-39
2022/10/27 06:25:29;;;;;;;;;;;;;;;;;;5113146;28;1993;-40
2022/10/27 06:27:56;;;;;;;;;;;;;;;;;;5113232;28;1801;-39
2022/10/27 06:30:23;;;;;;;;;;;;;;;;;;5113356;28;1405;-39
2022/10/27 06:32:50;;;;;;;;;;;;;;;;;;5113169;28;1819;-40
2022/10/27 06:35:18;;;;;;;;;;;;;;;;;;5111652;28;1759;-39
2022/10/27 06:37:46;;;;;;;;;;;;;;;;;;5112679;28;1989;-39
2022/10/27 06:40:14;;;;;;;;;;;;;;;;;;5114126;27;2085;-41
2022/10/27 06:42:42;;;;;;;;;;;;;;;;;;5120156;27;2056;-40
2022/10/27 06:45:31;;;;;;;;;;;;;;;;;;5115504;27;1922;-49
2022/10/27 06:48:00;;;;;;;;;;;;;;;;;;5132068;27;2091;-40
2022/10/27 06:50:29;;;;;;;;;;;;;;;;;;5120290;27;1517;-40
2022/10/27 06:52:57;;;;;;;;;;;;;;;;;;5119061;27;1931;-40
2022/10/27 06:55:25;;;;;;;;;;;;;;;;;;5121047;27;1911;-49
2022/10/27 06:57:52;;;;;;;;;;;;;;;;;;5124097;27;2025;-39
2022/10/27 07:00:20;;;;;;;;;;;;;;;;;;5133015;27;1936;-39
2022/10/27 07:02:48;;;;;;;;;;;;;;;;;;5114129;27;1792;-40
2022/10/27 07:05:15;;;;;;;;;;;;;;;;;;5111977;28;1910;-44
2022/10/27 07:07:49;;;;;;;;;;;;;;;;;;5112238;28;1958;-40
2022/10/27 07:10:18;;;;;;;;;;;;;;;;;;5111978;28;1388;-39
2022/10/27 07:12:54;;;;;;;;;;;;;;;;;;5112323;27;2123;-41
2022/10/27 07:15:24;;;;;;;;;;;;;;;;;;5133189;27;2053;-41
2022/10/27 07:17:55;;;;;;;;;;;;;;;;;;5132683;27;1869;-40
2022/10/27 07:20:24;;;;;;;;;;;;;;;;;;5117710;27;2174;-39
2022/10/27 07:22:52;;;;;;;;;;;;;;;;;;5112057;28;1984;-40
2022/10/27 07:25:19;;;;;;;;;;;;;;;;;;5111956;28;1907;-40
2022/10/27 07:27:55;;;;;;;;;;;;;;;;;;5111855;28;1484;-42
2022/10/27 07:30:25;;;;;;;;;;;;;;;;;;5111676;28;2026;-40
2022/10/27 07:32:52;;;;;;;;;;;;;;;;;;5111846;28;1473;-39
2022/10/27 07:35:19;;;;;;;;;;;;;;;;;;5111807;28;1691;-39
2022/10/27 07:37:47;;;;;;;;;;;;;;;;;;5112034;28;1820;-39
2022/10/27 07:40:16;;;;;;;;;;;;;;;;;;5111816;28;1566;-40
2022/10/27 07:42:55;;;;;;;;;;;;;;;;;;5111672;28;1823;-39
2022/10/27 07:45:24;;;;;;;;;;;;;;;;;;5111540;28;2213;-39
2022/10/27 07:47:53;;;;;;;;;;;;;;;;;;5111766;28;1725;-40
2022/10/27 07:50:23;;;;;;;;;;;;;;;;;;5111579;28;1650;-40
2022/10/27 07:52:52;;;;;;;;;;;;;;;;;;5111666;28;1827;-41
2022/10/27 07:55:20;;;;;;;;;;;;;;;;;;5111762;28;1881;-38
2022/10/27 07:57:56;;;;;;;;;;;;;;;;;;5111466;28;2259;-39
2022/10/27 08:00:24;;;;;;;;;;;;;;;;;;5111523;28;1553;-40
2022/10/27 08:02:52;;;;;;;;;;;;;;;;;;5111475;28;2303;-40
2022/10/27 08:05:19;;;;;;;;;;;;;;;;;;5111389;28;1973;-39
2022/10/27 08:07:46;;;;;;;;;;;;;;;;;;5111833;28;1206;-43
2022/10/27 08:10:13;;;;;;;;;;;;;;;;;;5111408;28;1997;-40
2022/10/27 08:12:44;;;;;;;;;;;;;;;;;;5106369;28;1265;-50
2022/10/27 08:15:11;;;;;;;;;;;;;;;;;;5111436;28;2008;-39
2022/10/27 08:17:39;;;;;;;;;;;;;;;;;;5111403;28;2272;-41
2022/10/27 08:20:07;;;;;;;;;;;;;;;;;;5124019;28;1948;-40
2022/10/27 08:22:36;;;;;;;;;;;;;;;;;;5129745;28;2093;-40
2022/10/27 08:25:03;;;;;;;;;;;;;;;;;;5120062;28;2261;-39
2022/10/27 08:27:33;;;;;;;;;;;;;;;;;;5131363;28;2218;-40
2022/10/27 08:30:00;;;;;;;;;;;;;;;;;;5118858;27;1714;-41
2022/10/27 08:32:27;;;;;;;;;;;;;;;;;;5110092;28;1610;-44
2022/10/27 08:34:55;;;;;;;;;;;;;;;;;;5111226;28;1986;-40
2022/10/27 08:37:22;;;;;;;;;;;;;;;;;;5111262;28;1896;-39
2022/10/27 08:39:50;;;;;;;;;;;;;;;;;;5111220;28;1656;-43
2022/10/27 08:42:39;;;;;;;;;;;;;;;;;;5127231;27;2099;-39
2022/10/27 08:45:08;;;;;;;;;;;;;;;;;;5135376;27;2256;-40
2022/10/27 08:47:40;;;;;;;;;;;;;;;;;;5135784;27;1577;-40
2022/10/27 08:50:17;;;;;;;;;;;;;;;;;;5135287;27;1517;-47
2022/10/27 08:52:48;;;;;;;;;;;;;;;;;;5134666;27;1873;-38
2022/10/27 08:55:20;;;;;;;;;;;;;;;;;;5135252;27;1613;-39
2022/10/27 08:58:02;;;;;;;;;;;;;;;;;;5135149;27;1832;-39
2022/10/27 09:00:32;;;;;;;;;;;;;;;;;;5135515;27;1883;-39
2022/10/27 09:03:05;;;;;;;;;;;;;;;;;;5134705;27;2121;-39
2022/10/27 09:05:36;;;;;;;;;;;;;;;;;;5134804;27;2097;-39
2022/10/27 09:08:13;;;;;;;;;;;;;;;;;;5135016;27;2152;-40
2022/10/27 09:10:43;;;;;;;;;;;;;;;;;;5135218;27;1363;-39
2022/10/27 09:13:30;;;;;;;;;;;;;;;;;;5134874;27;1548;-40
2022/10/27 09:16:00;;;;;;;;;;;;;;;;;;5134928;27;1458;-40
2022/10/27 09:18:50;;;;;;;;;;;;;;;;;;5122174;27;1901;-40
2022/10/27 09:21:20;;;;;;;;;;;;;;;;;;5134830;27;1892;-40
2022/10/27 09:23:49;;;;;;;;;;;;;;;;;;5134811;27;1814;-50
2022/10/27 09:26:19;;;;;;;;;;;;;;;;;;5134202;27;1970;-39
2022/10/27 09:28:48;;;;;;;;;;;;;;;;;;5134654;27;1544;-40
2022/10/27 09:31:17;;;;;;;;;;;;;;;;;;5134876;27;1837;-39
2022/10/27 09:33:51;;;;;;;;;;;;;;;;;;5134593;27;1809;-43
2022/10/27 09:36:21;;;;;;;;;;;;;;;;;;5134868;27;1635;-40
2022/10/27 09:38:48;;;;;;;;;;;;;;;;;;5134112;27;1920;-46
2022/10/27 09:41:16;;;;;;;;;;;;;;;;;;5134318;27;2012;-40
2022/10/27 09:43:43;;;;;;;;;;;;;;;;;;5134383;27;1241;-45
2022/10/27 09:46:14;;;;;;;;;;;;;;;;;;5134456;27;1898;-46
2022/10/27 09:48:45;;;;;;;;;;;;;;;;;;5134250;27;2117;-40
2022/10/27 09:51:20;;;;;;;;;;;;;;;;;;5134287;27;2095;-41
2022/10/27 09:53:49;;;;;;;;;;;;;;;;;;5134035;27;1853;-41
2022/10/27 09:56:25;;;;;;;;;;;;;;;;;;5134122;27;1927;-39
2022/10/27 09:58:56;;;;;;;;;;;;;;;;;;5134072;27;2072;-39
2022/10/27 10:01:25;;;;;;;;;;;;;;;;;;5133998;27;2232;-38
2022/10/27 10:04:05;;;;;;;;;;;;;;;;;;5133950;27;2002;-40
2022/10/27 10:06:36;;;;;;;;;;;;;;;;;;5134053;27;1914;-38
2022/10/27 10:09:21;;;;;;;;;;;;;;;;;;5130990;27;2153;-40
2022/10/27 10:11:49;;;;;;;;;;;;;;;;;;5133840;27;1791;-40
2022/10/27 10:14:24;;;;;;;;;;;;;;;;;;5133941;27;2217;-39
2022/10/27 10:16:51;;;;;;;;;;;;;;;;;;5133756;27;2229;-39
2022/10/27 10:19:23;;;;;;;;;;;;;;;;;;5113130;28;2032;-39
2022/10/27 10:21:52;;;;;;;;;;;;;;;;;;5113138;27;2087;-40
2022/10/27 10:24:21;;;;;;;;;;;;;;;;;;5113232;28;1795;-40
2022/10/27 10:26:51;;;;;;;;;;;;;;;;;;5112904;27;1973;-39
2022/10/27 10:29:26;;;;;;;;;;;;;;;;;;5113075;28;1957;-46
2022/10/27 10:32:06;;;;;;;;;;;;;;;;;;5112916;28;1687;-37
2022/10/27 10:34:34;;;;;;;;;;;;;;;;;;5112832;28;2048;-41
2022/10/27 10:37:02;;;;;;;;;;;;;;;;;;5113010;28;1741;-40
2022/10/27 10:39:34;;;;;;;;;;;;;;;;;;5112725;28;1695;-40
2022/10/27 10:42:10;;;;;;;;;;;;;;;;;;5113084;28;1796;-41
2022/10/27 10:44:37;;;;;;;;;;;;;;;;;;5113006;28;1568;-39
2022/10/27 10:47:06;;;;;;;;;;;;;;;;;;5112939;28;1965;-44
2022/10/27 10:49:35;;;;;;;;;;;;;;;;;;5112768;28;1619;-40
2022/10/27 10:52:05;;;;;;;;;;;;;;;;;;5112647;28;1605;-50
2022/10/27 10:54:34;;;;;;;;;;;;;;;;;;5112637;28;1426;-39
2022/10/27 10:57:02;;;;;;;;;;;;;;;;;;5112558;28;1968;-40
2022/10/27 10:59:30;;;;;;;;;;;;;;;;;;5112332;28;2024;-39
2022/10/27 11:02:05;;;;;;;;;;;;;;;;;;5112224;27;1715;-39
2022/10/27 11:04:46;;;;;;;;;;;;;;;;;;5111582;28;1806;-40
2022/10/27 11:07:23;;;;;;;;;;;;;;;;;;5112190;28;2196;-40
2022/10/27 11:09:58;;;;;;;;;;;;;;;;;;5112017;28;1476;-40
2022/10/27 11:12:29;;;;;;;;;;;;;;;;;;5112090;28;2100;-39
2022/10/27 11:14:57;;;;;;;;;;;;;;;;;;5112151;28;1982;-40
2022/10/27 11:17:35;;;;;;;;;;;;;;;;;;5112156;27;2167;-40
2022/10/27 11:20:04;;;;;;;;;;;;;;;;;;5111329;28;1867;-39
2022/10/27 11:22:32;;;;;;;;;;;;;;;;;;5111061;28;1523;-39
2022/10/27 11:25:05;;;;;;;;;;;;;;;;;;5110933;28;1638;-48
2022/10/27 11:27:38;;;;;;;;;;;;;;;;;;5111662;28;1976;-40
2022/10/27 11:30:20;;;;;;;;;;;;;;;;;;5111770;28;1960;-40
2022/10/27 11:33:06;;;;;;;;;;;;;;;;;;5111752;28;1950;-41
2022/10/27 11:35:49;;;;;;;;;;;;;;;;;;5111819;28;1957;-40
2022/10/27 11:38:20;;;;;;;;;;;;;;;;;;5111874;28;1808;-40
2022/10/27 11:41:02;;;;;;;;;;;;;;;;;;5111665;28;1648;-48
2022/10/27 11:43:38;;;;;;;;;;;;;;;;;;5098288;28;1939;-40
2022/10/27 11:46:10;;;;;;;;;;;;;;;;;;5106059;28;2236;-40
2022/10/27 11:49:00;;;;;;;;;;;;;;;;;;5111398;28;1777;-40
2022/10/27 11:51:32;;;;;;;;;;;;;;;;;;5111407;28;1945;-42
2022/10/27 11:54:00;;;;;;;;;;;;;;;;;;5111498;28;1876;-39
2022/10/27 11:56:39;;;;;;;;;;;;;;;;;;5110184;28;2130;-40
2022/10/27 11:59:20;;;;;;;;;;;;;;;;;;5111470;28;1840;-39
2022/10/27 12:01:47;;;;;;;;;;;;;;;;;;5111668;28;1692;-40
2022/10/27 12:04:32;;;;;;;;;;;;;;;;;;5111168;28;1830;-40
2022/10/27 12:07:06;;;;;;;;;;;;;;;;;;5111501;28;2157;-46
2022/10/27 12:09:50;;;;;;;;;;;;;;;;;;5110881;28;1804;-40
2022/10/27 12:12:24;;;;;;;;;;;;;;;;;;5111484;28;2155;-40
2022/10/27 12:15:01;;;;;;;;;;;;;;;;;;5111111;28;2008;-39
2022/10/27 12:17:42;;;;;;;;;;;;;;;;;;5114800;28;1687;-39
2022/10/27 12:20:14;;;;;;;;;;;;;;;;;;5115370;28;2030;-40
2022/10/27 12:22:52;;;;;;;;;;;;;;;;;;5115465;28;2211;-40
2022/10/27 12:25:47;;;;;;;;;;;;;;;;;;5115359;28;2000;-49
2022/10/27 12:28:16;;;;;;;;;;;;;;;;;;5092280;28;1971;-38
2022/10/27 12:30:46;;;;;;;;;;;;;;;;;;5115271;28;1686;-40
2022/10/27 12:33:13;;;;;;;;;;;;;;;;;;5115845;28;2161;-40
2022/10/27 12:35:57;;;;;;;;;;;;;;;;;;5115409;28;1748;-43
2022/10/27 12:38:25;;;;;;;;;;;;;;;;;;5114888;27;1504;-46
2022/10/27 12:41:06;;;;;;;;;;;;;;;;;;5114694;28;1758;-41
2022/10/27 12:43:35;;;;;;;;;;;;;;;;;;5114861;28;1688;-39
2022/10/27 12:46:13;;;;;;;;;;;;;;;;;;5114800;28;1842;-40
2022/10/27 12:48:56;;;;;;;;;;;;;;;;;;5115128;28;1800;-40
2022/10/27 12:51:28;;;;;;;;;;;;;;;;;;5114948;28;1689;-39
2022/10/27 12:54:23;;;;;;;;;;;;;;;;;;5117752;27;2328;-40
2022/10/27 12:56:52;;;;;;;;;;;;;;;;;;5099036;28;1840;-42
2022/10/27 12:59:34;;;;;;;;;;;;;;;;;;5115116;28;1963;-39
2022/10/27 13:02:06;;;;;;;;;;;;;;;;;;5114572;28;2248;-40
2022/10/27 13:04:34;;;;;;;;;;;;;;;;;;5114404;28;1839;-39
2022/10/27 13:07:25;;;;;;;;;;;;;;;;;;5114513;28;2160;-49
2022/10/27 13:10:08;;;;;;;;;;;;;;;;;;5114546;28;1701;-38
2022/10/27 13:12:36;;;;;;;;;;;;;;;;;;5114574;28;2171;-39
2022/10/27 13:15:08;;;;;;;;;;;;;;;;;;5115010;28;1945;-39
2022/10/27 13:17:44;;;;;;;;;;;;;;;;;;5119629;27;1914;-45
2022/10/27 13:20:30;;;;;;;;;;;;;;;;;;5135001;27;1957;-39
2022/10/27 13:23:04;;;;;;;;;;;;;;;;;;5134983;27;2039;-42
2022/10/27 13:25:37;;;;;;;;;;;;;;;;;;5134917;27;2184;-43
2022/10/27 13:28:14;;;;;;;;;;;;;;;;;;5134032;27;1977;-40
2022/10/27 13:30:49;;;;;;;;;;;;;;;;;;5134897;27;1787;-40
2022/10/27 13:33:30;;;;;;;;;;;;;;;;;;5134876;27;2020;-40
2022/10/27 13:36:17;;;;;;;;;;;;;;;;;;5134713;27;1879;-39
2022/10/27 13:38:44;;;;;;;;;;;;;;;;;;5134629;27;2136;-39
2022/10/27 13:41:31;;;;;;;;;;;;;;;;;;5134722;27;1914;-40
2022/10/27 13:44:00;;;;;;;;;;;;;;;;;;5134530;27;1257;-41
2022/10/27 13:47:11;;;;;;;;;;;;;;;;;;5134271;27;2182;-40
2022/10/27 13:49:41;;;;;;;;;;;;;;;;;;5070893;28;2111;-40
2022/10/27 13:52:11;;;;;;;;;;;;;;;;;;5124026;27;1961;-42
2022/10/27 13:55:05;;;;;;;;;;;;;;;;;;5134521;27;1946;-40
2022/10/27 13:57:33;;;;;;;;;;;;;;;;;;5132374;27;1787;-40
2022/10/27 14:00:08;;;;;;;;;;;;;;;;;;5134329;27;1654;-40
2022/10/27 14:02:47;;;;;;;;;;;;;;;;;;5134068;27;1964;-39
2022/10/27 14:05:34;;;;;;;;;;;;;;;;;;5133995;27;1672;-40
2022/10/27 14:08:16;;;;;;;;;;;;;;;;;;5134250;27;1914;-40
2022/10/27 14:10:47;;;;;;;;;;;;;;;;;;5133879;27;1513;-39
2022/10/27 14:13:37;;;;;;;;;;;;;;;;;;5133974;27;1764;-38
2022/10/27 14:16:05;;;;;;;;;;;;;;;;;;5125655;27;1872;-40
2022/10/27 14:18:36;;;;;;;;;;;;;;;;;;5118331;27;1942;-42
2022/10/27 14:21:15;;;;;;;;;;;;;;;;;;5110972;28;1934;-40
2022/10/27 14:23:48;;;;;;;;;;;;;;;;;;5112560;28;1531;-39
2022/10/27 14:26:28;;;;;;;;;;;;;;;;;;5113096;28;1958;-40
2022/10/27 14:28:57;;;;;;;;;;;;;;;;;;5113255;28;2260;-41
2022/10/27 14:31:24;;;;;;;;;;;;;;;;;;5113454;28;2084;-42
2022/10/27 14:33:52;;;;;;;;;;;;;;;;;;5112223;28;1872;-40
2022/10/27 14:36:23;;;;;;;;;;;;;;;;;;5113145;28;1696;-40
2022/10/27 14:38:58;;;;;;;;;;;;;;;;;;5112596;28;1526;-40
2022/10/27 14:41:29;;;;;;;;;;;;;;;;;;5112563;28;1780;-40
2022/10/27 14:44:02;;;;;;;;;;;;;;;;;;5112903;28;2011;-40
2022/10/27 14:46:35;;;;;;;;;;;;;;;;;;5112853;28;1976;-41
2022/10/27 14:49:12;;;;;;;;;;;;;;;;;;5112367;28;1958;-42
2022/10/27 14:51:43;;;;;;;;;;;;;;;;;;5112779;28;1835;-40
2022/10/27 14:54:13;;;;;;;;;;;;;;;;;;5112839;28;2089;-40
2022/10/27 14:56:54;;;;;;;;;;;;;;;;;;5112559;28;1758;-40
2022/10/27 14:59:23;;;;;;;;;;;;;;;;;;5112701;28;1939;-39
2022/10/27 15:01:53;;;;;;;;;;;;;;;;;;5112538;28;1906;-41
2022/10/27 15:04:27;;;;;;;;;;;;;;;;;;5112286;28;1816;-39
2022/10/27 15:07:01;;;;;;;;;;;;;;;;;;5112513;28;1981;-40
2022/10/27 15:09:38;;;;;;;;;;;;;;;;;;5112051;28;2077;-50
2022/10/27 15:12:16;;;;;;;;;;;;;;;;;;5112225;28;1931;-40
2022/10/27 15:14:46;;;;;;;;;;;;;;;;;;5112376;28;1547;-40
2022/10/27 15:17:14;;;;;;;;;;;;;;;;;;5114174;27;2011;-52
2022/10/27 15:19:51;;;;;;;;;;;;;;;;;;5127824;27;1380;-38
2022/10/27 15:22:20;;;;;;;;;;;;;;;;;;5120994;27;2312;-43
2022/10/27 15:24:48;;;;;;;;;;;;;;;;;;5129776;27;2078;-43
2022/10/27 15:27:16;;;;;;;;;;;;;;;;;;5130438;27;1926;-43
2022/10/27 15:29:47;;;;;;;;;;;;;;;;;;5130628;27;1663;-52
2022/10/27 15:32:46;;;;;;;;;;;;;;;;;;5131343;27;1642;-49
2022/10/27 15:35:27;;;;;;;;;;;;;;;;;;5130742;27;1886;-40
2022/10/27 15:37:55;;;;;;;;;;;;;;;;;;5131964;27;2048;-40
2022/10/27 15:40:25;;;;;;;;;;;;;;;;;;5132029;27;1884;-51
2022/10/27 15:42:54;;;;;;;;;;;;;;;;;;5132757;27;2008;-40
2022/10/27 15:45:29;;;;;;;;;;;;;;;;;;5132213;27;1602;-44
2022/10/27 15:47:59;;;;;;;;;;;;;;;;;;5132387;27;2146;-41
2022/10/27 15:50:36;;;;;;;;;;;;;;;;;;5132431;27;2019;-49
2022/10/27 15:53:20;;;;;;;;;;;;;;;;;;5132539;27;1587;-43
2022/10/27 15:56:05;;;;;;;;;;;;;;;;;;5132162;27;1505;-49
2022/10/27 15:58:35;;;;;;;;;;;;;;;;;;5132235;27;1823;-40
2022/10/27 16:01:10;;;;;;;;;;;;;;;;;;5132082;27;1670;-40
2022/10/27 16:03:58;;;;;;;;;;;;;;;;;;5122495;28;2040;-40
2022/10/27 16:06:27;;;;;;;;;;;;;;;;;;5119472;27;2011;-47
2022/10/27 16:08:58;;;;;;;;;;;;;;;;;;5120686;28;2022;-40
2022/10/27 16:11:30;;;;;;;;;;;;;;;;;;5132339;27;1589;-44
2022/10/27 16:14:04;;;;;;;;;;;;;;;;;;5132560;27;1652;-41
2022/10/27 16:16:35;;;;;;;;;;;;;;;;;;5132114;28;1680;-43
2022/10/27 16:19:13;;;;;;;;;;;;;;;;;;5124115;28;1894;-44
2022/10/27 16:21:41;;;;;;;;;;;;;;;;;;5128862;27;2251;-44
2022/10/27 16:24:17;;;;;;;;;;;;;;;;;;5132034;27;1968;-40
2022/10/27 16:26:46;;;;;;;;;;;;;;;;;;5132028;27;2031;-50
2022/10/27 16:29:19;;;;;;;;;;;;;;;;;;5131740;27;2127;-49
2022/10/27 16:31:48;;;;;;;;;;;;;;;;;;5130690;28;1906;-42
2022/10/27 16:34:18;;;;;;;;;;;;;;;;;;5131933;28;2150;-44
2022/10/27 16:36:48;;;;;;;;;;;;;;;;;;5130547;28;2005;-46
2022/10/27 16:39:16;;;;;;;;;;;;;;;;;;5131848;28;2311;-46
2022/10/27 16:41:45;;;;;;;;;;;;;;;;;;5131780;27;2067;-41
2022/10/27 16:44:28;;;;;;;;;;;;;;;;;;5131703;28;1535;-42
2022/10/27 16:47:02;;;;;;;;;;;;;;;;;;5131595;28;1647;-39
2022/10/27 16:49:29;;;;;;;;;;;;;;;;;;5131705;27;2070;-40
2022/10/27 16:51:56;;;;;;;;;;;;;;;;;;5131752;28;1892;-44
2022/10/27 16:54:25;;;;;;;;;;;;;;;;;;5131440;28;2227;-45
2022/10/27 16:56:59;;;;;;;;;;;;;;;;;;5131555;27;1945;-43
2022/10/27 16:59:27;;;;;;;;;;;;;;;;;;5131639;28;1745;-47
2022/10/27 17:01:54;;;;;;;;;;;;;;;;;;5131642;27;1845;-43
2022/10/27 17:04:22;;;;;;;;;;;;;;;;;;5134642;27;1866;-48
2022/10/27 17:06:58;;;;;;;;;;;;;;;;;;5135154;27;2154;-46
2022/10/27 17:09:30;;;;;;;;;;;;;;;;;;5135255;27;1905;-49
2022/10/27 17:11:57;;;;;;;;;;;;;;;;;;5135220;27;1639;-46
2022/10/27 17:14:26;;;;;;;;;;;;;;;;;;5135459;27;2106;-50
2022/10/27 17:16:53;;;;;;;;;;;;;;;;;;5135705;27;1843;-48
2022/10/27 17:19:20;;;;;;;;;;;;;;;;;;5114722;27;2184;-43
2022/10/27 17:21:51;;;;;;;;;;;;;;;;;;5114601;28;1658;-47
2022/10/27 17:24:27;;;;;;;;;;;;;;;;;;5114458;28;1611;-47
2022/10/27 17:26:55;;;;;;;;;;;;;;;;;;5114577;28;1935;-47
2022/10/27 17:29:23;;;;;;;;;;;;;;;;;;5114358;28;1968;-49
2022/10/27 17:31:53;;;;;;;;;;;;;;;;;;5114268;28;2028;-45
2022/10/27 17:34:23;;;;;;;;;;;;;;;;;;5114376;28;1560;-51